createdAt,value
2018-06-04T00:01:15.530Z,60.07
2018-06-04T00:03:45.255Z,60.32
2018-06-04T00:06:14.037Z,60.54
2018-06-04T00:08:42.849Z,60.67
2018-06-04T00:11:12.116Z,60.92
2018-06-04T00:13:41.289Z,60.36
2018-06-04T00:16:10.013Z,60.94
2018-06-04T00:18:38.787Z,62.08
2018-06-04T00:21:07.558Z,61.70
2018-06-04T00:23:36.381Z,60.84
2018-06-04T00:26:06.324Z,61.32
2018-06-04T00:28:35.126Z,61.92
2018-06-04T00:31:03.983Z,61.82
2018-06-04T00:33:32.897Z,61.81
2018-06-04T00:36:01.732Z,61.46
2018-06-04T00:38:30.825Z,62.12
2018-06-04T00:40:59.624Z,62.79
2018-06-04T00:43:28.309Z,62.42
2018-06-04T00:45:57.752Z,62.72
2018-06-04T00:48:27.663Z,63.01
2018-06-04T00:50:56.896Z,62.03
2018-06-04T00:53:25.725Z,62.56
2018-06-04T00:56:05.728Z,61.61
2018-06-04T00:58:34.565Z,62.42
2018-06-04T01:01:04.177Z,62.09
2018-06-04T01:03:33.045Z,62.20
2018-06-04T01:06:01.953Z,62.02
2018-06-04T01:08:32.037Z,62.50
2018-06-04T01:11:00.852Z,62.43
2018-06-04T01:13:29.642Z,62.49
2018-06-04T01:15:58.669Z,62.49
2018-06-04T01:18:28.094Z,62.76
2018-06-04T01:20:58.480Z,62.46
2018-06-04T01:23:27.512Z,62.64
2018-06-04T01:25:56.348Z,62.90
2018-06-04T01:28:25.568Z,63.16
2018-06-04T01:30:54.329Z,63.41
2018-06-04T01:33:23.380Z,63.20
2018-06-04T01:35:52.214Z,63.23
2018-06-04T01:38:21.876Z,63.13
2018-06-04T01:40:50.763Z,63.53
2018-06-04T01:43:19.547Z,63.61
2018-06-04T01:45:48.497Z,63.45
2018-06-04T01:48:19.060Z,63.65
2018-06-04T01:50:47.844Z,63.44
2018-06-04T01:53:17.584Z,63.49
2018-06-04T01:55:46.416Z,63.84
2018-06-04T01:58:15.235Z,63.66
2018-06-04T02:00:44.103Z,63.89
2018-06-04T02:03:13.540Z,63.69
2018-06-04T02:05:42.383Z,64.01
2018-06-04T02:08:11.228Z,63.99
2018-06-04T02:10:40.096Z,63.93
2018-06-04T02:13:09.880Z,64.35
2018-06-04T02:15:39.260Z,64.24
2018-06-04T02:18:07.960Z,64.15
2018-06-04T02:20:37.045Z,64.34
2018-06-04T02:23:05.819Z,64.23
2018-06-04T02:25:34.580Z,64.35
2018-06-04T02:28:03.837Z,64.46
2018-06-04T02:30:32.624Z,64.63
2018-06-04T02:33:01.420Z,64.76
2018-06-04T02:35:30.227Z,65.05
2018-06-04T02:37:59.085Z,64.84
2018-06-04T02:40:29.235Z,65.11
2018-06-04T02:42:58.213Z,64.98
2018-06-04T02:45:27.027Z,65.57
2018-06-04T02:47:55.909Z,65.42
2018-06-04T02:50:24.680Z,65.65
2018-06-04T02:52:53.909Z,65.32
2018-06-04T02:55:22.754Z,65.52
2018-06-04T02:57:51.504Z,65.65
2018-06-04T03:00:21.035Z,65.30
2018-06-04T03:02:49.897Z,65.43
2018-06-04T03:05:18.768Z,65.55
2018-06-04T03:07:47.617Z,65.53
2018-06-04T03:10:16.256Z,65.90
2018-06-04T03:12:45.023Z,65.44
2018-06-04T03:15:13.888Z,65.37
2018-06-04T03:17:42.705Z,65.64
2018-06-04T03:20:12.596Z,65.72
2018-06-04T03:22:41.266Z,65.67
2018-06-04T03:25:10.493Z,66.09
2018-06-04T03:27:40.328Z,65.90
2018-06-04T03:30:09.557Z,65.99
2018-06-04T03:32:38.265Z,65.94
2018-06-04T03:35:07.056Z,65.61
2018-06-04T03:37:35.873Z,65.83
2018-06-04T03:40:04.782Z,65.64
2018-06-04T03:42:33.766Z,65.37
2018-06-04T03:45:03.564Z,65.43
2018-06-04T03:47:32.427Z,65.42
2018-06-04T03:50:01.136Z,65.67
2018-06-04T03:52:30.021Z,65.35
2018-06-04T03:54:58.836Z,65.34
2018-06-04T03:57:27.625Z,65.46
2018-06-04T03:59:56.365Z,65.23
2018-06-04T04:02:25.319Z,65.35
2018-06-04T04:04:54.049Z,64.99
2018-06-04T04:07:22.961Z,64.88
2018-06-04T04:09:51.729Z,64.66
2018-06-04T04:12:20.722Z,64.82
2018-06-04T04:14:49.532Z,64.81
2018-06-04T04:17:18.288Z,64.44
2018-06-04T04:19:47.382Z,64.32
2018-06-04T04:22:16.179Z,64.50
2018-06-04T04:24:45.219Z,64.62
2018-06-04T04:27:14.096Z,64.85
2018-06-04T04:29:44.032Z,64.26
2018-06-04T04:32:13.304Z,63.83
2018-06-04T04:34:42.176Z,63.72
2018-06-04T04:37:10.859Z,63.08
2018-06-04T04:39:39.664Z,63.22
2018-06-04T04:42:08.528Z,62.97
2018-06-04T04:44:37.709Z,62.95
2018-06-04T04:47:06.722Z,62.82
2018-06-04T04:49:35.817Z,62.48
2018-06-04T04:52:04.645Z,62.62
2018-06-04T04:54:34.424Z,62.41
2018-06-04T04:57:03.404Z,62.20
2018-06-04T04:59:32.240Z,62.00
2018-06-04T05:02:00.992Z,61.32
2018-06-04T05:04:29.700Z,61.14
2018-06-04T05:06:59.436Z,60.82
2018-06-04T05:09:28.292Z,60.75
2018-06-04T05:11:57.091Z,60.08
2018-06-04T05:14:25.961Z,60.58
2018-06-04T05:16:54.865Z,59.76
2018-06-04T05:19:23.704Z,59.51
2018-06-04T05:21:52.532Z,58.54
2018-06-04T05:24:21.645Z,58.13
2018-06-04T05:26:50.590Z,57.65
2018-06-04T05:29:19.433Z,57.31
2018-06-04T05:31:48.412Z,56.79
2018-06-04T05:34:17.180Z,57.79
2018-06-04T05:36:45.842Z,58.11
2018-06-04T05:39:14.656Z,57.13
2018-06-04T05:41:43.626Z,57.97
2018-06-04T05:44:12.444Z,57.15
2018-06-04T05:46:41.327Z,56.24
2018-06-04T05:49:10.196Z,55.93
2018-06-04T05:51:39.063Z,55.69
2018-06-04T05:54:08.661Z,55.10
2018-06-04T05:56:37.536Z,54.45
2018-06-04T05:59:06.392Z,53.81
2018-06-04T06:01:35.137Z,53.38
2018-06-04T06:04:03.932Z,53.46
2018-06-04T06:06:32.945Z,53.00
2018-06-04T06:09:02.105Z,52.46
2018-06-04T06:11:30.995Z,52.11
2018-06-04T06:14:01.552Z,50.60
2018-06-04T06:16:32.012Z,52.26
2018-06-04T06:19:01.587Z,51.27
2018-06-04T06:21:30.406Z,51.71
2018-06-04T06:24:00.258Z,49.83
2018-06-04T06:26:29.388Z,50.68
2018-06-04T06:29:03.555Z,50.40
2018-06-04T06:31:32.964Z,50.37
2018-06-04T06:34:03.413Z,49.99
2018-06-04T06:36:33.422Z,47.98
2018-06-04T06:39:02.764Z,47.55
2018-06-04T06:41:31.384Z,48.00
2018-06-04T06:44:02.533Z,48.10
2018-06-04T06:46:32.533Z,48.25
2018-06-04T06:49:01.494Z,47.63
2018-06-04T06:51:30.948Z,45.85
2018-06-04T06:54:00.277Z,42.95
2018-06-04T06:56:29.135Z,42.34
2018-06-04T06:58:58.621Z,39.60
2018-06-04T07:01:29.289Z,39.87
2018-06-04T07:03:57.987Z,39.52
2018-06-04T07:06:27.685Z,38.54
2018-06-04T07:08:56.807Z,39.46
2018-06-04T07:11:26.089Z,38.62
2018-06-04T07:13:55.340Z,39.50
2018-06-04T07:16:24.230Z,38.57
2018-06-04T07:18:52.859Z,39.63
2018-06-04T07:21:21.697Z,39.59
2018-06-04T07:23:50.487Z,37.36
2018-06-04T07:26:19.311Z,37.28
2018-06-04T07:28:48.124Z,37.79
2018-06-04T07:31:17.771Z,39.05
2018-06-04T07:33:48.294Z,39.75
2018-06-04T07:36:17.589Z,38.94
2018-06-04T07:38:46.693Z,39.06
2018-06-04T07:41:16.005Z,38.05
2018-06-04T07:43:45.800Z,36.69
2018-06-04T07:46:15.409Z,36.49
2018-06-04T07:48:44.256Z,37.17
2018-06-04T07:51:13.108Z,35.67
2018-06-04T07:53:42.047Z,34.48
2018-06-04T07:56:10.847Z,36.00
2018-06-04T07:58:40.180Z,34.63
2018-06-04T08:01:09.225Z,33.84
2018-06-04T08:03:38.061Z,36.20
2018-06-04T08:06:06.883Z,35.85
2018-06-04T08:08:35.668Z,33.10
2018-06-04T08:11:04.425Z,33.71
2018-06-04T08:13:33.469Z,32.93
2018-06-04T08:16:02.311Z,32.98
2018-06-04T08:18:33.072Z,35.42
2018-06-04T08:21:04.437Z,34.96
2018-06-04T08:23:33.292Z,34.29
2018-06-04T08:26:02.117Z,34.94
2018-06-04T08:28:31.375Z,32.50
2018-06-04T08:31:00.260Z,32.06
2018-06-04T08:33:29.135Z,32.18
2018-06-04T08:35:57.844Z,31.66
2018-06-04T08:38:26.779Z,30.29
2018-06-04T08:40:56.148Z,31.22
2018-06-04T08:43:24.919Z,29.43
2018-06-04T08:45:53.855Z,29.15
2018-06-04T08:48:22.697Z,28.74
2018-06-04T08:50:51.636Z,29.70
2018-06-04T08:53:20.381Z,27.78
2018-06-04T08:55:50.045Z,29.42
2018-06-04T08:58:18.801Z,27.29
2018-06-04T09:00:47.662Z,26.80
2018-06-04T09:03:16.733Z,27.28
2018-06-04T09:05:45.542Z,28.70
2018-06-04T09:08:14.232Z,28.40
2018-06-04T09:10:43.040Z,28.42
2018-06-04T09:13:21.401Z,28.51
2018-06-04T09:15:51.835Z,24.97
2018-06-04T09:18:22.608Z,23.89
2018-06-04T09:20:51.908Z,24.19
2018-06-04T09:23:20.844Z,24.22
2018-06-04T09:25:51.619Z,22.74
2018-06-04T09:28:20.554Z,22.58
2018-06-04T09:30:53.031Z,22.24
2018-06-04T09:33:22.279Z,22.39
2018-06-04T09:35:51.181Z,21.64
2018-06-04T09:38:20.078Z,21.77
2018-06-04T09:40:48.936Z,20.65
2018-06-04T09:43:21.073Z,19.04
2018-06-04T09:45:50.054Z,20.45
2018-06-04T09:48:19.316Z,18.55
2018-06-04T09:50:48.100Z,18.92
2018-06-04T09:53:16.913Z,19.55
2018-06-04T09:55:45.677Z,18.51
2018-06-04T09:58:14.636Z,17.76
2018-06-04T10:00:43.617Z,17.29
2018-06-04T10:03:12.518Z,17.49
2018-06-04T10:05:41.369Z,16.61
2018-06-04T10:08:10.077Z,14.61
2018-06-04T10:10:39.348Z,15.15
2018-06-04T10:13:08.057Z,13.24
2018-06-04T10:15:37.376Z,15.07
2018-06-04T10:18:06.908Z,13.73
2018-06-04T10:20:35.713Z,13.22
2018-06-04T10:23:04.866Z,12.68
2018-06-04T10:25:33.807Z,12.93
2018-06-04T10:28:02.680Z,13.35
2018-06-04T10:30:31.509Z,14.86
2018-06-04T10:33:00.265Z,15.08
2018-06-04T10:35:29.193Z,16.32
2018-06-04T10:37:58.052Z,17.52
2018-06-04T10:40:26.879Z,16.00
2018-06-04T10:42:55.645Z,16.67
2018-06-04T10:45:24.515Z,17.87
2018-06-04T10:47:53.240Z,16.07
2018-06-04T10:50:21.999Z,16.02
2018-06-04T10:52:50.840Z,16.58
2018-06-04T10:55:19.693Z,15.83
2018-06-04T10:57:48.564Z,15.03
2018-06-04T11:00:17.746Z,14.56
2018-06-04T11:02:46.616Z,13.92
2018-06-04T11:05:16.449Z,16.26
2018-06-04T11:07:45.228Z,16.77
2018-06-04T11:10:13.820Z,14.74
2018-06-04T11:12:42.653Z,14.50
2018-06-04T11:15:11.616Z,13.81
2018-06-04T11:17:41.291Z,14.81
2018-06-04T11:20:10.144Z,17.34
2018-06-04T11:22:38.893Z,18.08
2018-06-04T11:25:08.076Z,16.87
2018-06-04T11:27:36.900Z,20.03
2018-06-04T11:30:06.146Z,20.59
2018-06-04T11:32:35.064Z,18.17
2018-06-04T11:35:03.864Z,16.23
2018-06-04T11:37:33.045Z,14.57
2018-06-04T11:40:01.900Z,14.41
2018-06-04T11:42:30.838Z,13.82
2018-06-04T11:44:59.663Z,14.68
2018-06-04T11:47:28.375Z,13.36
2018-06-04T11:49:57.476Z,13.14
2018-06-04T11:52:26.404Z,13.08
2018-06-04T11:54:55.193Z,11.91
2018-06-04T11:57:24.111Z,13.50
2018-06-04T11:59:52.973Z,13.67
2018-06-04T12:02:22.068Z,11.94
2018-06-04T12:04:50.867Z,11.59
2018-06-04T12:07:20.150Z,13.87
2018-06-04T12:09:48.976Z,11.73
2018-06-04T12:12:17.638Z,14.44
2018-06-04T12:14:46.492Z,12.36
2018-06-04T12:17:15.312Z,12.78
2018-06-04T12:19:44.148Z,11.72
2018-06-04T12:22:13.009Z,11.23
2018-06-04T12:24:41.880Z,10.84
2018-06-04T12:27:10.788Z,10.76
2018-06-04T12:29:40.216Z,10.83
2018-06-04T12:32:09.179Z,10.08
2018-06-04T12:34:37.976Z,9.48
2018-06-04T12:37:06.900Z,9.74
2018-06-04T12:39:35.918Z,10.36
2018-06-04T12:42:04.728Z,11.21
2018-06-04T12:44:33.408Z,10.72
2018-06-04T12:47:02.227Z,10.37
2018-06-04T12:49:31.367Z,9.99
2018-06-04T12:52:00.325Z,10.00
2018-06-04T12:54:29.118Z,11.44
2018-06-04T12:56:58.131Z,10.48
2018-06-04T12:59:27.165Z,9.19
2018-06-04T13:01:56.169Z,10.19
2018-06-04T13:04:25.147Z,10.31
2018-06-04T13:06:53.843Z,12.08
2018-06-04T13:09:22.684Z,12.96
2018-06-04T13:11:52.521Z,14.91
2018-06-04T13:14:21.328Z,14.04
2018-06-04T13:16:50.606Z,12.91
2018-06-04T13:19:20.174Z,13.44
2018-06-04T13:21:48.915Z,13.19
2018-06-04T13:24:18.240Z,12.69
2018-06-04T13:26:48.964Z,11.62
2018-06-04T13:29:17.787Z,12.71
2018-06-04T13:31:46.641Z,12.73
2018-06-04T13:34:15.698Z,13.09
2018-06-04T13:36:44.540Z,12.43
2018-06-04T13:39:13.567Z,10.99
2018-06-04T13:41:42.716Z,12.15
2018-06-04T13:44:11.452Z,11.10
2018-06-04T13:46:42.397Z,11.50
2018-06-04T13:49:11.306Z,12.76
2018-06-04T13:51:40.012Z,12.83
2018-06-04T13:54:09.162Z,13.31
2018-06-04T13:56:37.896Z,13.39
2018-06-04T13:59:07.100Z,11.02
2018-06-04T14:01:36.728Z,10.74
2018-06-04T14:04:05.487Z,13.34
2018-06-04T14:06:34.308Z,14.45
2018-06-04T14:09:03.536Z,16.23
2018-06-04T14:11:32.748Z,17.64
2018-06-04T14:14:01.565Z,18.46
2018-06-04T14:16:30.408Z,18.99
2018-06-04T14:18:59.615Z,18.72
2018-06-04T14:21:28.440Z,17.16
2018-06-04T14:23:57.578Z,16.78
2018-06-04T14:26:27.290Z,16.15
2018-06-04T14:28:56.347Z,15.37
2018-06-04T14:31:25.172Z,14.75
2018-06-04T14:33:54.209Z,15.92
2018-06-04T14:36:23.012Z,16.45
2018-06-04T14:38:52.139Z,18.72
2018-06-04T14:41:21.059Z,18.53
2018-06-04T14:43:51.149Z,20.39
2018-06-04T14:46:20.632Z,20.44
2018-06-04T14:48:50.161Z,20.98
2018-06-04T14:51:19.053Z,20.21
2018-06-04T14:53:47.923Z,18.23
2018-06-04T14:56:17.198Z,17.40
2018-06-04T14:58:45.909Z,17.21
2018-06-04T15:01:14.802Z,18.29
2018-06-04T15:03:44.000Z,18.65
2018-06-04T15:06:13.231Z,18.89
2018-06-04T15:08:42.252Z,19.72
2018-06-04T15:11:11.302Z,19.85
2018-06-04T15:13:40.373Z,20.79
2018-06-04T15:16:09.573Z,20.91
2018-06-04T15:18:38.738Z,21.88
2018-06-04T15:21:07.925Z,23.18
2018-06-04T15:23:37.224Z,21.91
2018-06-04T15:26:05.841Z,22.60
2018-06-04T15:28:35.222Z,22.53
2018-06-04T15:31:04.474Z,23.42
2018-06-04T15:33:34.966Z,23.14
2018-06-04T15:36:03.784Z,22.03
2018-06-04T15:38:33.223Z,22.49
2018-06-04T15:41:02.467Z,22.90
2018-06-04T15:43:32.723Z,22.36
2018-06-04T15:46:02.756Z,22.23
2018-06-04T15:48:39.576Z,23.51
2018-06-04T15:51:09.862Z,23.39
2018-06-04T15:53:42.867Z,23.46
2018-06-04T15:56:11.964Z,23.67
2018-06-04T15:58:40.976Z,24.27
2018-06-04T16:01:10.079Z,25.25
2018-06-04T16:03:38.795Z,25.01
2018-06-04T16:06:09.340Z,25.27
2018-06-04T16:08:38.565Z,25.18
2018-06-04T16:11:13.487Z,25.45
2018-06-04T16:13:44.536Z,25.29
2018-06-04T16:16:13.475Z,25.99
2018-06-04T16:18:42.402Z,25.56
2018-06-04T16:21:12.176Z,26.18
2018-06-04T16:23:40.936Z,26.35
2018-06-04T16:26:09.912Z,26.80
2018-06-04T16:28:38.725Z,27.61
2018-06-04T16:31:07.924Z,25.41
2018-06-04T16:33:37.052Z,25.27
2018-06-04T16:36:06.191Z,25.03
2018-06-04T16:38:34.940Z,24.65
2018-06-04T16:41:03.844Z,24.91
2018-06-04T16:43:33.199Z,25.73
2018-06-04T16:46:02.124Z,26.37
2018-06-04T16:48:31.040Z,26.08
2018-06-04T16:51:02.257Z,27.25
2018-06-04T16:53:31.071Z,27.57
2018-06-04T16:56:01.258Z,27.29
2018-06-04T16:58:30.480Z,27.30
2018-06-04T17:00:59.225Z,27.50
2018-06-04T17:03:28.625Z,28.34
2018-06-04T17:05:57.428Z,27.63
2018-06-04T17:08:26.450Z,28.20
2018-06-04T17:10:55.268Z,27.81
2018-06-04T17:13:24.152Z,27.42
2018-06-04T17:15:52.889Z,28.33
2018-06-04T17:18:22.695Z,28.38
2018-06-04T17:20:52.524Z,27.61
2018-06-04T17:23:21.348Z,28.41
2018-06-04T17:25:50.557Z,29.22
2018-06-04T17:28:19.225Z,29.09
2018-06-04T17:30:47.896Z,29.29
2018-06-04T17:33:17.188Z,28.52
2018-06-04T17:35:46.044Z,28.25
2018-06-04T17:38:15.195Z,28.12
2018-06-04T17:40:44.273Z,28.08
2018-06-04T17:43:14.043Z,29.00
2018-06-04T17:45:43.740Z,29.00
2018-06-04T17:48:13.055Z,28.73
2018-06-04T17:50:42.409Z,28.80
2018-06-04T17:53:11.546Z,29.13
2018-06-04T17:55:40.249Z,29.15
2018-06-04T17:58:09.088Z,28.80
2018-06-04T18:00:38.348Z,29.55
2018-06-04T18:03:07.448Z,29.69
2018-06-04T18:05:36.818Z,29.37
2018-06-04T18:08:07.560Z,29.40
2018-06-04T18:10:36.536Z,29.96
2018-06-04T18:13:05.508Z,29.46
2018-06-04T18:15:35.348Z,29.61
2018-06-04T18:18:10.479Z,30.66
2018-06-04T18:20:40.049Z,30.26
2018-06-04T18:23:09.058Z,29.97
2018-06-04T18:25:39.421Z,29.79
2018-06-04T18:28:09.549Z,30.23
2018-06-04T18:30:38.815Z,30.14
2018-06-04T18:33:07.902Z,30.26
2018-06-04T18:35:36.807Z,30.79
2018-06-04T18:38:06.457Z,31.19
2018-06-04T18:40:35.851Z,31.44
2018-06-04T18:43:05.228Z,31.28
2018-06-04T18:45:34.694Z,31.00
2018-06-04T18:48:03.838Z,31.03
2018-06-04T18:50:33.036Z,32.07
2018-06-04T18:53:02.448Z,31.78
2018-06-04T18:55:31.411Z,32.59
2018-06-04T18:58:02.089Z,32.20
2018-06-04T19:00:31.453Z,32.45
2018-06-04T19:03:00.862Z,32.56
2018-06-04T19:05:30.362Z,32.41
2018-06-04T19:08:00.457Z,32.92
2018-06-04T19:10:30.741Z,32.21
2018-06-04T19:13:01.284Z,32.92
2018-06-04T19:15:31.931Z,33.46
2018-06-04T19:18:01.443Z,33.77
2018-06-04T19:20:31.047Z,32.96
2018-06-04T19:23:00.452Z,33.31
2018-06-04T19:25:29.895Z,33.61
2018-06-04T19:27:59.724Z,34.40
2018-06-04T19:30:30.223Z,34.23
2018-06-04T19:33:00.361Z,34.33
2018-06-04T19:35:33.584Z,34.12
2018-06-04T19:38:02.978Z,34.77
2018-06-04T19:40:32.759Z,34.90
2018-06-04T19:43:03.245Z,34.72
2018-06-04T19:45:32.753Z,35.01
2018-06-04T19:48:02.348Z,35.39
2018-06-04T19:50:32.998Z,36.71
2018-06-04T19:53:02.996Z,36.29
2018-06-04T19:55:32.659Z,36.20
2018-06-04T19:58:01.998Z,36.36
2018-06-04T20:00:32.648Z,36.58
2018-06-04T20:03:02.614Z,36.87
2018-06-04T20:05:33.531Z,37.02
2018-06-04T20:08:03.848Z,36.24
2018-06-04T20:10:33.340Z,36.76
2018-06-04T20:13:03.696Z,37.95
2018-06-04T20:15:33.099Z,38.58
2018-06-04T20:18:02.640Z,39.33
2018-06-04T20:20:31.795Z,39.38
2018-06-04T20:23:01.300Z,39.03
2018-06-04T20:25:32.087Z,39.09
2018-06-04T20:28:02.273Z,39.22
2018-06-04T20:30:32.668Z,38.01
2018-06-04T20:33:02.499Z,38.53
2018-06-04T20:35:31.521Z,39.37
2018-06-04T20:38:00.277Z,38.97
2018-06-04T20:40:29.495Z,38.66
2018-06-04T20:42:58.500Z,39.74
2018-06-04T20:45:27.854Z,40.09
2018-06-04T20:47:57.543Z,39.53
2018-06-04T20:50:26.472Z,39.40
2018-06-04T20:52:56.076Z,39.30
2018-06-04T20:55:25.032Z,40.26
2018-06-04T20:57:54.253Z,40.19
2018-06-04T21:00:23.116Z,39.94
2018-06-04T21:02:52.261Z,40.83
2018-06-04T21:05:21.496Z,39.92
2018-06-04T21:07:50.992Z,39.67
2018-06-04T21:10:20.913Z,39.81
2018-06-04T21:12:49.961Z,40.19
2018-06-04T21:15:19.146Z,40.64
2018-06-04T21:17:47.975Z,41.91
2018-06-04T21:20:17.029Z,42.46
2018-06-04T21:22:45.848Z,42.62
2018-06-04T21:25:15.248Z,41.48
2018-06-04T21:27:44.207Z,42.14
2018-06-04T21:30:13.434Z,41.39
2018-06-04T21:32:42.627Z,41.96
2018-06-04T21:35:11.428Z,42.10
2018-06-04T21:37:40.259Z,42.44
2018-06-04T21:40:09.312Z,42.41
2018-06-04T21:42:38.153Z,42.56
2018-06-04T21:45:07.116Z,42.48
2018-06-04T21:47:35.944Z,43.20
2018-06-04T21:50:04.944Z,42.85
2018-06-04T21:52:34.796Z,43.01
2018-06-04T21:55:03.687Z,43.43
2018-06-04T21:57:32.735Z,42.92
2018-06-04T22:00:01.691Z,43.13
2018-06-04T22:02:30.835Z,42.64
2018-06-04T22:04:59.673Z,43.09
2018-06-04T22:07:28.545Z,43.30
2018-06-04T22:09:57.433Z,43.45
2018-06-04T22:12:26.279Z,44.33
2018-06-04T22:14:55.421Z,43.91
2018-06-04T22:17:24.559Z,44.58
2018-06-04T22:19:54.260Z,44.91
2018-06-04T22:22:23.132Z,45.27
2018-06-04T22:24:51.895Z,45.84
2018-06-04T22:27:20.719Z,45.14
2018-06-04T22:29:49.480Z,45.28
2018-06-04T23:37:49.035Z,51.09
2018-06-04T23:40:17.852Z,50.93
2018-06-04T23:42:47.324Z,50.55
2018-06-04T23:45:16.079Z,50.44
2018-06-04T23:47:44.837Z,50.40
2018-06-04T23:50:13.587Z,50.85
2018-06-04T23:52:43.083Z,49.71
2018-06-04T23:55:11.759Z,50.46
2018-06-04T23:57:40.567Z,49.78
